HBZIL VNLK-VNLK
Flight info
| Callsign | HBZIL |
|---|---|
| Flight time | 0h 36m |
| Altitude | 24000 |
| Route | DCT MOUNT EVEREST |
| Aircraft | H125/L-DGOV/C |
Departure
| Time | 2026-01-25 16:26 |
|---|---|
| Airport | Tenzing-Hillary Airport (VNLK) |
Arrival
| Time | 2026-01-25 17:02 |
|---|---|
| Airport | Tenzing-Hillary Airport (VNLK) |
| Time | Latitude | Longitude | Altitude | Speed | Heading |
|---|---|---|---|---|---|
| 2026-01-25 16:21 | 27.68775 | 86.73066 | 9476 ft | 0 kts | 60° |
| 2026-01-25 16:23 | 27.68776 | 86.73067 | 9476 ft | 0 kts | 20° |
| 2026-01-25 16:25 | 27.68697 | 86.72512 | 9675 ft | 85 kts | 283° |
| 2026-01-25 16:25 | 27.69027 | 86.72174 | 10181 ft | 60 kts | 339° |
| 2026-01-25 16:26 | 27.70755 | 86.71733 | 10980 ft | 101 kts | 350° |
| 2026-01-25 16:26 | 27.71499 | 86.71657 | 11164 ft | 111 kts | 354° |
| 2026-01-25 16:26 | 27.73084 | 86.71674 | 11467 ft | 120 kts | 0° |
| 2026-01-25 16:27 | 27.74744 | 86.71719 | 11721 ft | 120 kts | 354° |
| 2026-01-25 16:27 | 27.75567 | 86.71660 | 11918 ft | 118 kts | 358° |
| 2026-01-25 16:28 | 27.78763 | 86.71816 | 12726 ft | 115 kts | 14° |
| 2026-01-25 16:28 | 27.79497 | 86.72113 | 12929 ft | 110 kts | 29° |
| 2026-01-25 16:29 | 27.81191 | 86.73450 | 13622 ft | 84 kts | 36° |
| 2026-01-25 16:30 | 27.82187 | 86.74267 | 13987 ft | 93 kts | 41° |
| 2026-01-25 16:30 | 27.82717 | 86.74619 | 14197 ft | 83 kts | 19° |
| 2026-01-25 16:30 | 27.83915 | 86.74829 | 14547 ft | 90 kts | 352° |
| 2026-01-25 16:31 | 27.85209 | 86.74463 | 14934 ft | 102 kts | 341° |
| 2026-01-25 16:31 | 27.86604 | 86.74098 | 15410 ft | 106 kts | 345° |
| 2026-01-25 16:32 | 27.87316 | 86.73892 | 15655 ft | 107 kts | 341° |
| 2026-01-25 16:33 | 27.90280 | 86.73297 | 16734 ft | 102 kts | 13° |
| 2026-01-25 16:33 | 27.91511 | 86.73947 | 17160 ft | 97 kts | 38° |
| 2026-01-25 16:34 | 27.92401 | 86.75004 | 17665 ft | 91 kts | 53° |
| 2026-01-25 16:34 | 27.92784 | 86.75557 | 17973 ft | 88 kts | 60° |
| 2026-01-25 16:34 | 27.92568 | 86.76951 | 18122 ft | 100 kts | 116° |
| 2026-01-25 16:35 | 27.91837 | 86.78449 | 18161 ft | 110 kts | 125° |
| 2026-01-25 16:35 | 27.90968 | 86.79990 | 18241 ft | 124 kts | 117° |
| 2026-01-25 16:36 | 27.90585 | 86.82726 | 19093 ft | 129 kts | 81° |
| 2026-01-25 16:36 | 27.90683 | 86.83749 | 19360 ft | 130 kts | 88° |
| 2026-01-25 16:37 | 27.91373 | 86.86248 | 20614 ft | 108 kts | 47° |
| 2026-01-25 16:38 | 27.92253 | 86.87633 | 21355 ft | 107 kts | 49° |
| 2026-01-25 16:38 | 27.92672 | 86.88309 | 21729 ft | 103 kts | 45° |
| 2026-01-25 16:38 | 27.93520 | 86.89393 | 22585 ft | 84 kts | 26° |
| 2026-01-25 16:39 | 27.94333 | 86.90238 | 23615 ft | 77 kts | 20° |
| 2026-01-25 16:39 | 27.95143 | 86.91160 | 24270 ft | 75 kts | 27° |
| 2026-01-25 16:40 | 27.95864 | 86.90587 | 24881 ft | 66 kts | 304° |
| 2026-01-25 16:41 | 27.96567 | 86.90945 | 25397 ft | 79 kts | 35° |
| 2026-01-25 16:42 | 27.98203 | 86.92928 | 28138 ft | 8 kts | 287° |
| 2026-01-25 16:45 | 27.99426 | 86.90801 | 27148 ft | 128 kts | 258° |
| 2026-01-25 16:46 | 27.94029 | 86.86789 | 25308 ft | 133 kts | 216° |
| 2026-01-25 16:47 | 27.92581 | 86.85967 | 24819 ft | 100 kts | 230° |
| 2026-01-25 16:47 | 27.91555 | 86.85251 | 24430 ft | 75 kts | 228° |
| 2026-01-25 16:48 | 27.90243 | 86.84408 | 23639 ft | 69 kts | 233° |
| 2026-01-25 16:49 | 27.89505 | 86.83862 | 23155 ft | 57 kts | 237° |
| 2026-01-25 16:49 | 27.88876 | 86.83453 | 22703 ft | 48 kts | 238° |
| 2026-01-25 16:49 | 27.88545 | 86.83253 | 22418 ft | 59 kts | 230° |
| 2026-01-25 16:50 | 27.87540 | 86.82392 | 21742 ft | 56 kts | 243° |
| 2026-01-25 16:51 | 27.87023 | 86.81864 | 21449 ft | 49 kts | 237° |
| 2026-01-25 16:51 | 27.86704 | 86.81635 | 21207 ft | 58 kts | 233° |
| 2026-01-25 16:51 | 27.86221 | 86.81038 | 20856 ft | 46 kts | 248° |
| 2026-01-25 16:52 | 27.85308 | 86.79816 | 20460 ft | 86 kts | 240° |
| 2026-01-25 16:53 | 27.84628 | 86.78725 | 20389 ft | 84 kts | 240° |
| 2026-01-25 16:53 | 27.84281 | 86.78139 | 20237 ft | 97 kts | 239° |
| 2026-01-25 16:54 | 27.83029 | 86.76207 | 19921 ft | 106 kts | 237° |
| 2026-01-25 16:54 | 27.82649 | 86.75466 | 19739 ft | 110 kts | 240° |
| 2026-01-25 16:54 | 27.81648 | 86.73960 | 19247 ft | 123 kts | 227° |
| 2026-01-25 16:55 | 27.80360 | 86.72605 | 18774 ft | 131 kts | 221° |
| 2026-01-25 16:55 | 27.79654 | 86.71978 | 18627 ft | 131 kts | 219° |
| 2026-01-25 16:56 | 27.76198 | 86.70432 | 17614 ft | 148 kts | 202° |
| 2026-01-25 16:57 | 27.74368 | 86.69802 | 17399 ft | 131 kts | 179° |
| 2026-01-25 16:57 | 27.73429 | 86.70034 | 17105 ft | 143 kts | 165° |
| 2026-01-25 16:58 | 27.70503 | 86.71814 | 15985 ft | 159 kts | 147° |
| 2026-01-25 16:58 | 27.69650 | 86.72514 | 16013 ft | 141 kts | 144° |
| 2026-01-25 16:58 | 27.67886 | 86.73171 | 15702 ft | 141 kts | 186° |
| 2026-01-25 16:59 | 27.65960 | 86.72772 | 15215 ft | 138 kts | 225° |
| 2026-01-25 16:59 | 27.65263 | 86.70603 | 14464 ft | 154 kts | 257° |
| 2026-01-25 17:00 | 27.65927 | 86.67389 | 13135 ft | 179 kts | 355° |
| 2026-01-25 17:01 | 27.67426 | 86.69431 | 10525 ft | 178 kts | 95° |
| 2026-01-25 17:01 | 27.67764 | 86.71586 | 9040 ft | 126 kts | 36° |
| 2026-01-25 17:02 | 27.68368 | 86.72323 | 9159 ft | 23 kts | 68° |
| 2026-01-25 17:02 | 27.68513 | 86.72621 | 9336 ft | 20 kts | 72° |
| 2026-01-25 17:02 | 27.68567 | 86.72725 | 9309 ft | 15 kts | 75° |
| 2026-01-25 17:03 | 27.68647 | 86.72881 | 9398 ft | 15 kts | 57° |
| 2026-01-25 17:03 | 27.68710 | 86.73001 | 9462 ft | 6 kts | 70° |